Aérodrome :
LOGIN :

S'inscrire | Disclaimer

   EN    FR    IT 

 










Légende :    VFR   VFR Marginal   IFR   IFR Intensif   IFR Très Intensif
Visi : 
Plafond : 
>= 8 km
>= 3000ft
5 à 8 km
1000 à 3000 ft
1500m à 5 km
500 à 1000 ft
800 à 1500m
200 à 500 ft
< 800m
< 200 ft
Symboles :   Orages  Brouillard  Fortes neiges  Fortes précipitations  Vent > 20 kt
SIGMETs :   Divers  Orages  Givrage  Turbulence  Onde Orograph.  Cendres Volcan.







- Altitude de l'aérodrome : 1058 ft
- Code IATA : SCN


EDDR - Saarbrücken

DERNIER METAR :
  • 290650Z 24010KT 200V260 9999 FEW008 BKN012 BKN028 15/13 Q0999 BECMG SCT012

METARs EXPIRÉS :
  • 290620Z 22009KT 9999 -RA FEW008 BKN010 15/13 Q0999 TEMPO BKN008
  • 290550Z 22009KT 9999 FEW009 BKN011 15/13 Q0999 TEMPO BKN009
  • 290520Z 24009KT 9999 FEW009 BKN013 15/13 Q0999 BECMG BKN015
  • 290450Z 24008KT 9999 FEW010 BKN012 15/13 Q0998 BECMG BKN015
  • 290420Z 24008KT 210V270 9999 FEW010 BKN012 15/13 Q0998 TEMPO BKN008

TAF TAF EDDR
Valide du 29 à 06h jusqu'au 30 à 06h UTC


290500Z 2906/3006 22009KT 9999 SCT015 BKN035
TEMPO 2906/2908 BKN010
TEMPO 2912/2919 SHRA BKN030TCU
PROB40
TEMPO 2913/2918 23015G25KT 4000 TSRA BKN025CB
TEMPO 3001/3006 4500 BR BKN007
Pas de NOTAMs connus pour ce terrain.



MET'MAP, la Météo Aéronautique d'un coup d'oeil ! - Copyright ORBIFLY Décembre 2007 - Disclaimer

ORBIFLY MET'MAP TEAM :

Programmation & Développement : Alexandra Zaïnal
Conception & Développement : Baudouin d'Aumeries
Co-Programmation & Développement : Marc-Olivier Méhu
Soutien technique & logistique : Manuel Goepfert

Contact : metmap@orbifly.com




SOURCES & CREDITS :

   NOAA